Cherokee Falls, South Carolina
Current Conditions -  °F | °C
As of 5:15 PM on Thursday 18 Dec 2014 (Local Time) from KEHO Reporting Station
Clear Clear  
Wind Chill: 52°   Ceiling: Unl
Heat Index: 52°   Visibility: 10mi
Dew Point: 26°   Wind: 0mph
Humidity: 35%   Direction: NA
Pressure: 30.07"   Gusts: NA
Location:  35.1147°N, 81.4908°W
Report Text: KEHO 182215Z AUTO 00000KT 10SM CLR 11/M04 A3007 RMK AO2 T01131036
Loading
Personal Weather Stations






























Interactive Weather Map New forecast layout! Learn more

10-Day Weather Forecast

Advertisements
Track Severe Weather on mobile